AirNav   ATP
 
 295 users online  

L17 Taft-Kern County Airport
Taft, California, USA


FAA INFORMATION EFFECTIVE 09 NOVEMBER 2017

Location

FAA Identifier: L17
Lat/Long: 35-08-29.9691N / 119-26-16.2251W
35-08.499485N / 119-26.270418W
35.1416581 / -119.4378403
(estimated)
Elevation: 858.2 ft. / 261.6 m (surveyed)
Variation: 14E (1985)
From city: 1 mile E of TAFT, CA
Time zone: UTC -8 (UTC -7 during Daylight Saving Time)
Zip code: 93268

Airport Operations

Airport use: Open to the public
Activation date: 04/1940
Control tower: no
ARTCC: LOS ANGELES CENTER
FSS: RANCHO MURIETA FLIGHT SERVICE STATION
NOTAMs facility: RIU (NOTAM-D service available)
Attendance: SAT-SUN 1000-1600, ALL MON-FRI 0800-1600
Pattern altitude: 1658.2 ft. MSL
Wind indicator: lighted
Segmented circle: yes
Lights: MIRL RY 07/25 AND PAPI RY 25 NIGHT USE ONLY ACTVT- CTAF.
Beacon: white-green (lighted land airport)
Operates sunset to sunrise.

Airport Communications

CTAF/UNICOM: 122.8

Nearby radio navigation aids

VOR radial/distance  VOR name  Freq  Var
FLWr066/21.2FELLOWS VOR/DME117.5016E
EHFr205/26.5SHAFTER VORTAC115.4014E
GMNr290/34.8GORMAN VORTAC116.1016E

Airport Services

Parking: tiedowns
Airframe service: MINOR
Powerplant service: MINOR
Bottled oxygen: NONE
Bulk oxygen: NONE

Runway Information

Runway 7/25

Dimensions: 3283 x 60 ft. / 1001 x 18 m
Surface: asphalt, in fair condition
Weight bearing capacity: 
Single wheel: 4.0
Runway edge lights: medium intensity
Runway edge markings: MKD WITH X'S NO LDGS TKOF ONLY.
Gradient: WEST
RUNWAY 7  RUNWAY 25
Latitude: 35-08.450232N35-08.548737N
Longitude: 119-26.594825W119-25.946012W
Elevation: 858.2 ft.759.2 ft.
Gradient: 2.2%3.0% UP
Traffic pattern: leftleft
Runway heading: 066 magnetic, 080 true246 magnetic, 260 true
Markings: NSTDbasic, in fair condition
Visual slope indicator: 2-light PAPI on left (3.50 degrees glide path)
Runway end identifier lights: nono
Touchdown point: yes, no lightsyes, no lights
Obstructions: 25 ft. pole, 385 ft. from runway, 100 ft. left of centerline, 7:1 slope to clearnone
RY 25 +4 FT BRUSH 150 FT FM EOR 50 FT RIGHT.

Airport Ownership and Management from official FAA records

Ownership: Publicly-owned
Owner: COUNTY OF KERN DEPT OF AIRPORTS
3701 WINGS WAY, SUITE 300
BAKERSFIELD, CA 93308-7026
Phone 661-391-1800
Manager: RON BREWSTER
3701 WINGS WAY, SUITE 300
BAKERSFIELD, CA 93308-7026
Phone 661-391-1801
CELL PHONE: (661) 747-4053 24 HRS: (661) 393-3868 FAX: (661) 391-1801 EMAIL: BREWSTERR@CO.KERN.CA.US

Airport Operational Statistics

Aircraft based on the field: 17
Single engine airplanes: 15
Multi engine airplanes: 2
    
Aircraft operations: avg 27/day *
75% local general aviation
20% transient general aviation
5% air taxi
* for 12-month period ending 01 March 2017

Additional Remarks

RY 25 STEEP UPHILL GRADE (2.2%).
BE ALERT TO LGTD CRANES WITHIN 5 NMR 200' AGL AND BELOW.
RY 07/25 HAS A DRY STREAMBED NE END.
RY 07 NO TKOF WITH TAILWINDS.
NO STUDENT SOLO FLIGHTS PERMITTED.
FOR ARPT INFORMATION CALL (661) 393-7990.

Instrument Procedures

There are no published instrument procedures at L17.

Some nearby airports with instrument procedures:

L45 - Bakersfield Municipal Airport (24 nm NE)
KMIT - Shafter Airport-Minter Field (25 nm NE)
KBFL - Meadows Field Airport (26 nm NE)
KDLO - Delano Municipal Airport (38 nm N)
KIZA - Santa Ynez Airport (45 nm SW)
 
Loc | Ops | Rwys | IFR | FBO | Links
Com | Nav | Svcs | Stats | Notes


 
Area around L17 (Taft-Kern County Airport)
 
Road maps at: MapQuest Bing Google
 
Aerial photo
WARNING: Photo may not be current or correct
Aerial photo of L17 (Taft-Kern County Airport)
Photo by Mike Evans
Photo taken 12-May-2009

Do you have a better or more recent aerial photo of Taft-Kern County Airport that you would like to share? If so, please send us your photo.

 
Sectional chart

 
Airport distance calculator
Flying to Taft-Kern County Airport? Find the distance to fly.

From to L17

Sunrise and sunset
Times for 20-Nov-2017
 Local
(UTC-8)
 Zulu
(UTC)
Morning civil twilight06:1114:11
Sunrise06:3914:39
Sunset16:4800:48
Evening civil twilight17:1601:16

Current date and time
Zulu (UTC)  20-Nov-2017 09:46:19
Local (UTC-8)  20-Nov-2017 01:46:19
 
METAR
KBFL 
26nm NE 
200854Z 07004KT 6SM HZ CLR 08/05 A3012 RMK AO2 SLP197 T00830050 53003
KDLO 
38nm N 
200935Z AUTO 00000KT 7SM CLR 04/02 A3013 RMK AO2 T00350018
2CN4 
39nm NW 
SuperAWOS
200855Z AUTO 00000KT 10SM 08/00 A3015
KSDB 
43nm SE 
200853Z AUTO 35012KT 10SM CLR 12/M11 A3012 RMK AO2 SLP163 T01171111 58003 $
KIZA 
45nm SW 
200935Z AUTO 07004KT 10SM CLR 06/04 A3003 RMK AO2
KSBA 
47nm SW 
200853Z AUTO 00000KT 10SM CLR 09/07 A2999 RMK AO2 SLP156 T00890067 58004
KTSP 
49nm E 
200935Z AUTO 26007KT 10SM CLR 04/M05 A3014 RMK AO2
TAF
KBFL 
26nm NE 
200536Z 2006/2106 VRB03KT 6SM HZ BKN150
NOTAMs
Click for the latest NOTAMs
NOTAMs are issued by the DoD/FAA and will open in a separate window not controlled by AirNav.

 

 
 

FBO, Fuel Providers, and Aircraft Ground Support

  
 Business Name 
 
 Contact 
 
 Services / Description 
 
Fuel Prices
 
Comments
  
CB & RR, LLC 661-765-5330
[email]
Aviation fuel, Aircraft parking (ramp or tiedown), Restrooms, Showers

More info about CB & RR, LLC
Ascent
100LL Jet A
SS $5.15 $3.86 
 Updated 15-Nov-2017
 
   write
SS=Self service
Update Fuel Prices
 

Would you like to see your business listed on this page?

 If your business provides an interesting product or service to pilots, flight crews, aircraft, or users of the Taft-Kern County Airport, you should consider listing it here.  To start the listing process, click on the button below
 
Add a business
 

Other Pages about Taft-Kern County Airport

Update a link
 
Copyright © AirNav, LLC. All rights reserved. Privacy Policy  Contact